Terminal Aerodrome Forecast
Issued by NWS Paducah, KY

Home | Current Version | Previous Version | Text Only | Print | Product List | Glossary Off
Versions: 1 2 3 4 5 6 7 8 9 10 11 12 13 14 15 16 17 18 19 20 21 22 23 24 25

000
FTUS43 KPAH 310300 AAA
TAFPAH
TAF AMD
KPAH 310312Z 3103/3124 17006KT P6SM FEW005 BKN018
      TEMPO 3103/3106 SCT018 OVC150
     FM310600 17006KT 5SM -SHRA BR BKN015
     FM311000 21004KT 3SM BR OVC009
     FM311600 24007KT P6SM BKN030=

USA.gov is the U.S. government's official web portal to all federal, state and local government web resources and services.